sensor_id;sensor_type;location;lat;lon;timestamp;P1;durP1;ratioP1;P2;durP2;ratioP2
71975;SDS011;60680;52.182;5.398;2022-08-19T00:00:53;5.28;;;3.45;;
71975;SDS011;60680;52.182;5.398;2022-08-19T00:03:19;5.43;;;4.20;;
71975;SDS011;60680;52.182;5.398;2022-08-19T00:05:45;5.30;;;3.43;;
71975;SDS011;60680;52.182;5.398;2022-08-19T00:08:12;5.82;;;3.75;;
71975;SDS011;60680;52.182;5.398;2022-08-19T00:10:38;6.00;;;3.70;;
71975;SDS011;60680;52.182;5.398;2022-08-19T00:13:05;5.20;;;4.00;;
71975;SDS011;60680;52.182;5.398;2022-08-19T00:15:31;6.13;;;4.47;;
71975;SDS011;60680;52.182;5.398;2022-08-19T00:17:58;5.53;;;3.80;;
71975;SDS011;60680;52.182;5.398;2022-08-19T00:20:25;6.43;;;4.05;;
71975;SDS011;60680;52.182;5.398;2022-08-19T00:22:51;4.90;;;4.10;;
71975;SDS011;60680;52.182;5.398;2022-08-19T00:25:18;7.00;;;4.10;;
71975;SDS011;60680;52.182;5.398;2022-08-19T00:27:55;7.28;;;4.63;;
71975;SDS011;60680;52.182;5.398;2022-08-19T00:30:23;7.47;;;4.20;;
71975;SDS011;60680;52.182;5.398;2022-08-19T00:32:49;5.97;;;4.32;;
71975;SDS011;60680;52.182;5.398;2022-08-19T00:35:16;5.47;;;4.05;;
71975;SDS011;60680;52.182;5.398;2022-08-19T00:37:44;9.32;;;4.60;;
71975;SDS011;60680;52.182;5.398;2022-08-19T00:40:11;7.28;;;4.35;;
71975;SDS011;60680;52.182;5.398;2022-08-19T00:42:38;5.27;;;4.10;;
71975;SDS011;60680;52.182;5.398;2022-08-19T00:45:08;6.90;;;5.07;;
71975;SDS011;60680;52.182;5.398;2022-08-19T00:47:38;7.75;;;4.75;;
71975;SDS011;60680;52.182;5.398;2022-08-19T00:50:05;7.40;;;5.13;;
71975;SDS011;60680;52.182;5.398;2022-08-19T00:52:37;6.95;;;5.20;;
71975;SDS011;60680;52.182;5.398;2022-08-19T00:55:08;5.27;;;4.37;;
71975;SDS011;60680;52.182;5.398;2022-08-19T00:57:38;7.32;;;4.95;;
71975;SDS011;60680;52.182;5.398;2022-08-19T01:00:09;5.63;;;4.28;;
71975;SDS011;60680;52.182;5.398;2022-08-19T01:02:40;6.95;;;4.60;;
71975;SDS011;60680;52.182;5.398;2022-08-19T01:05:09;5.18;;;4.10;;
71975;SDS011;60680;52.182;5.398;2022-08-19T01:07:39;6.93;;;4.23;;
71975;SDS011;60680;52.182;5.398;2022-08-19T01:10:08;7.53;;;4.57;;
71975;SDS011;60680;52.182;5.398;2022-08-19T01:12:37;6.07;;;4.65;;
71975;SDS011;60680;52.182;5.398;2022-08-19T01:15:05;11.85;;;4.88;;
71975;SDS011;60680;52.182;5.398;2022-08-19T01:17:34;8.27;;;4.90;;
71975;SDS011;60680;52.182;5.398;2022-08-19T01:20:03;6.43;;;4.03;;
71975;SDS011;60680;52.182;5.398;2022-08-19T01:22:34;7.35;;;5.30;;
71975;SDS011;60680;52.182;5.398;2022-08-19T01:25:09;8.32;;;5.05;;
71975;SDS011;60680;52.182;5.398;2022-08-19T01:27:41;6.05;;;4.40;;
71975;SDS011;60680;52.182;5.398;2022-08-19T01:30:12;7.13;;;5.32;;
71975;SDS011;60680;52.182;5.398;2022-08-19T01:32:45;7.83;;;5.40;;
71975;SDS011;60680;52.182;5.398;2022-08-19T01:35:12;7.25;;;5.32;;
71975;SDS011;60680;52.182;5.398;2022-08-19T01:37:46;7.35;;;5.55;;
71975;SDS011;60680;52.182;5.398;2022-08-19T01:40:19;7.88;;;5.80;;
71975;SDS011;60680;52.182;5.398;2022-08-19T01:42:48;8.93;;;5.55;;
71975;SDS011;60680;52.182;5.398;2022-08-19T01:45:16;10.23;;;6.80;;
71975;SDS011;60680;52.182;5.398;2022-08-19T01:47:43;9.90;;;6.63;;
71975;SDS011;60680;52.182;5.398;2022-08-19T01:50:22;9.75;;;6.95;;
71975;SDS011;60680;52.182;5.398;2022-08-19T01:52:50;9.35;;;6.65;;
71975;SDS011;60680;52.182;5.398;2022-08-19T01:55:33;8.05;;;5.93;;
71975;SDS011;60680;52.182;5.398;2022-08-19T01:58:07;9.20;;;6.07;;
71975;SDS011;60680;52.182;5.398;2022-08-19T02:00:38;8.75;;;5.80;;
71975;SDS011;60680;52.182;5.398;2022-08-19T02:03:05;10.57;;;7.28;;
71975;SDS011;60680;52.182;5.398;2022-08-19T02:05:32;10.30;;;7.78;;
71975;SDS011;60680;52.182;5.398;2022-08-19T02:07:59;9.77;;;7.20;;
71975;SDS011;60680;52.182;5.398;2022-08-19T02:10:25;11.50;;;6.73;;
71975;SDS011;60680;52.182;5.398;2022-08-19T02:12:52;10.45;;;7.30;;
71975;SDS011;60680;52.182;5.398;2022-08-19T02:15:19;11.00;;;7.38;;
71975;SDS011;60680;52.182;5.398;2022-08-19T02:17:46;9.75;;;7.43;;
71975;SDS011;60680;52.182;5.398;2022-08-19T02:20:14;12.07;;;7.75;;
71975;SDS011;60680;52.182;5.398;2022-08-19T02:22:41;11.33;;;7.50;;
71975;SDS011;60680;52.182;5.398;2022-08-19T02:25:09;11.00;;;7.53;;
71975;SDS011;60680;52.182;5.398;2022-08-19T02:27:38;11.10;;;7.88;;
71975;SDS011;60680;52.182;5.398;2022-08-19T02:30:06;12.05;;;7.60;;
71975;SDS011;60680;52.182;5.398;2022-08-19T02:32:39;10.75;;;7.07;;
71975;SDS011;60680;52.182;5.398;2022-08-19T02:35:10;10.93;;;7.03;;
71975;SDS011;60680;52.182;5.398;2022-08-19T02:37:38;11.70;;;7.60;;
71975;SDS011;60680;52.182;5.398;2022-08-19T02:40:22;9.88;;;6.85;;
71975;SDS011;60680;52.182;5.398;2022-08-19T02:42:49;12.10;;;7.55;;
71975;SDS011;60680;52.182;5.398;2022-08-19T02:45:16;12.18;;;7.30;;
71975;SDS011;60680;52.182;5.398;2022-08-19T02:47:42;11.23;;;6.60;;
71975;SDS011;60680;52.182;5.398;2022-08-19T02:50:09;9.90;;;6.70;;
71975;SDS011;60680;52.182;5.398;2022-08-19T02:52:35;10.48;;;7.10;;
71975;SDS011;60680;52.182;5.398;2022-08-19T02:55:02;9.93;;;6.80;;
71975;SDS011;60680;52.182;5.398;2022-08-19T02:57:29;8.85;;;6.65;;
71975;SDS011;60680;52.182;5.398;2022-08-19T02:59:58;8.60;;;6.20;;
71975;SDS011;60680;52.182;5.398;2022-08-19T03:02:24;7.72;;;5.85;;
71975;SDS011;60680;52.182;5.398;2022-08-19T03:04:51;9.85;;;6.32;;
71975;SDS011;60680;52.182;5.398;2022-08-19T03:07:18;10.52;;;6.63;;
71975;SDS011;60680;52.182;5.398;2022-08-19T03:09:44;9.00;;;6.05;;
71975;SDS011;60680;52.182;5.398;2022-08-19T03:12:11;9.73;;;6.47;;
71975;SDS011;60680;52.182;5.398;2022-08-19T03:14:37;10.27;;;6.35;;
71975;SDS011;60680;52.182;5.398;2022-08-19T03:17:03;11.32;;;7.20;;
71975;SDS011;60680;52.182;5.398;2022-08-19T03:19:30;11.25;;;6.63;;
71975;SDS011;60680;52.182;5.398;2022-08-19T03:21:57;9.93;;;6.85;;
71975;SDS011;60680;52.182;5.398;2022-08-19T03:24:24;10.00;;;6.07;;
71975;SDS011;60680;52.182;5.398;2022-08-19T03:26:52;8.88;;;6.45;;
71975;SDS011;60680;52.182;5.398;2022-08-19T03:29:23;10.15;;;7.10;;
71975;SDS011;60680;52.182;5.398;2022-08-19T03:31:56;11.15;;;7.30;;
71975;SDS011;60680;52.182;5.398;2022-08-19T03:34:25;10.63;;;7.40;;
71975;SDS011;60680;52.182;5.398;2022-08-19T03:36:58;11.37;;;8.03;;
71975;SDS011;60680;52.182;5.398;2022-08-19T03:39:29;12.23;;;7.75;;
71975;SDS011;60680;52.182;5.398;2022-08-19T03:41:56;11.40;;;7.68;;
71975;SDS011;60680;52.182;5.398;2022-08-19T03:44:48;9.60;;;6.82;;
71975;SDS011;60680;52.182;5.398;2022-08-19T03:47:14;11.63;;;7.55;;
71975;SDS011;60680;52.182;5.398;2022-08-19T03:49:42;11.23;;;7.23;;
71975;SDS011;60680;52.182;5.398;2022-08-19T03:52:09;12.52;;;7.70;;
71975;SDS011;60680;52.182;5.398;2022-08-19T03:54:36;11.68;;;7.32;;
71975;SDS011;60680;52.182;5.398;2022-08-19T03:57:04;12.23;;;7.43;;
71975;SDS011;60680;52.182;5.398;2022-08-19T03:59:32;10.57;;;7.50;;
71975;SDS011;60680;52.182;5.398;2022-08-19T04:02:02;11.17;;;7.37;;
71975;SDS011;60680;52.182;5.398;2022-08-19T04:04:35;10.98;;;7.30;;
71975;SDS011;60680;52.182;5.398;2022-08-19T04:07:07;9.73;;;6.55;;
71975;SDS011;60680;52.182;5.398;2022-08-19T04:09:35;10.38;;;6.63;;
71975;SDS011;60680;52.182;5.398;2022-08-19T04:12:02;9.85;;;6.32;;
71975;SDS011;60680;52.182;5.398;2022-08-19T04:14:31;9.83;;;6.77;;
71975;SDS011;60680;52.182;5.398;2022-08-19T04:17:00;10.75;;;6.80;;
71975;SDS011;60680;52.182;5.398;2022-08-19T04:19:29;10.93;;;6.88;;
71975;SDS011;60680;52.182;5.398;2022-08-19T04:21:56;11.27;;;6.65;;
71975;SDS011;60680;52.182;5.398;2022-08-19T04:24:24;11.68;;;6.85;;
71975;SDS011;60680;52.182;5.398;2022-08-19T04:26:50;10.30;;;6.37;;
71975;SDS011;60680;52.182;5.398;2022-08-19T04:29:19;12.65;;;6.55;;
71975;SDS011;60680;52.182;5.398;2022-08-19T04:31:48;10.95;;;6.05;;
71975;SDS011;60680;52.182;5.398;2022-08-19T04:34:16;9.07;;;5.70;;
71975;SDS011;60680;52.182;5.398;2022-08-19T04:36:44;9.95;;;6.25;;
71975;SDS011;60680;52.182;5.398;2022-08-19T04:39:15;11.57;;;6.07;;
71975;SDS011;60680;52.182;5.398;2022-08-19T04:41:43;10.07;;;5.60;;
71975;SDS011;60680;52.182;5.398;2022-08-19T04:44:32;10.55;;;5.63;;
71975;SDS011;60680;52.182;5.398;2022-08-19T04:47:01;9.20;;;5.82;;
71975;SDS011;60680;52.182;5.398;2022-08-19T04:49:36;10.80;;;5.60;;
71975;SDS011;60680;52.182;5.398;2022-08-19T04:52:03;10.47;;;5.43;;
71975;SDS011;60680;52.182;5.398;2022-08-19T04:54:29;8.93;;;5.95;;
71975;SDS011;60680;52.182;5.398;2022-08-19T04:57:04;9.15;;;5.50;;
71975;SDS011;60680;52.182;5.398;2022-08-19T04:59:33;9.32;;;6.00;;
71975;SDS011;60680;52.182;5.398;2022-08-19T05:02:00;9.60;;;5.80;;
71975;SDS011;60680;52.182;5.398;2022-08-19T05:04:26;9.93;;;6.00;;
71975;SDS011;60680;52.182;5.398;2022-08-19T05:06:57;10.70;;;5.93;;
71975;SDS011;60680;52.182;5.398;2022-08-19T05:09:28;10.63;;;5.85;;
71975;SDS011;60680;52.182;5.398;2022-08-19T05:12:15;10.05;;;6.13;;
71975;SDS011;60680;52.182;5.398;2022-08-19T05:14:42;13.35;;;6.25;;
71975;SDS011;60680;52.182;5.398;2022-08-19T05:17:11;10.33;;;6.37;;
71975;SDS011;60680;52.182;5.398;2022-08-19T05:19:58;10.07;;;5.60;;
71975;SDS011;60680;52.182;5.398;2022-08-19T05:22:43;11.80;;;6.47;;
71975;SDS011;60680;52.182;5.398;2022-08-19T05:25:12;9.15;;;6.45;;
71975;SDS011;60680;52.182;5.398;2022-08-19T05:27:44;9.57;;;6.22;;
71975;SDS011;60680;52.182;5.398;2022-08-19T05:30:11;9.83;;;6.00;;
71975;SDS011;60680;52.182;5.398;2022-08-19T05:32:39;9.98;;;5.82;;
71975;SDS011;60680;52.182;5.398;2022-08-19T05:35:05;10.85;;;6.28;;
71975;SDS011;60680;52.182;5.398;2022-08-19T05:37:33;11.52;;;5.72;;
71975;SDS011;60680;52.182;5.398;2022-08-19T05:39:59;8.73;;;5.65;;
71975;SDS011;60680;52.182;5.398;2022-08-19T05:42:26;11.80;;;6.70;;
71975;SDS011;60680;52.182;5.398;2022-08-19T05:44:52;12.10;;;7.07;;
71975;SDS011;60680;52.182;5.398;2022-08-19T05:47:19;12.52;;;7.13;;
71975;SDS011;60680;52.182;5.398;2022-08-19T05:49:46;17.55;;;9.00;;
71975;SDS011;60680;52.182;5.398;2022-08-19T05:52:15;20.13;;;10.10;;
71975;SDS011;60680;52.182;5.398;2022-08-19T05:54:44;23.27;;;10.83;;
71975;SDS011;60680;52.182;5.398;2022-08-19T05:57:16;28.13;;;12.60;;
71975;SDS011;60680;52.182;5.398;2022-08-19T05:59:44;27.42;;;13.18;;
71975;SDS011;60680;52.182;5.398;2022-08-19T06:02:14;32.28;;;14.43;;
71975;SDS011;60680;52.182;5.398;2022-08-19T06:04:40;33.83;;;14.77;;
71975;SDS011;60680;52.182;5.398;2022-08-19T06:07:08;37.73;;;15.83;;
71975;SDS011;60680;52.182;5.398;2022-08-19T06:09:38;44.35;;;17.85;;
71975;SDS011;60680;52.182;5.398;2022-08-19T06:12:05;45.35;;;18.80;;
71975;SDS011;60680;52.182;5.398;2022-08-19T06:14:33;45.85;;;18.40;;
71975;SDS011;60680;52.182;5.398;2022-08-19T06:17:06;50.65;;;19.60;;
71975;SDS011;60680;52.182;5.398;2022-08-19T06:19:33;45.73;;;18.67;;
71975;SDS011;60680;52.182;5.398;2022-08-19T06:22:06;45.10;;;19.00;;
71975;SDS011;60680;52.182;5.398;2022-08-19T06:24:33;45.03;;;18.70;;
71975;SDS011;60680;52.182;5.398;2022-08-19T06:27:00;42.55;;;16.63;;
71975;SDS011;60680;52.182;5.398;2022-08-19T06:29:28;39.70;;;18.52;;
71975;SDS011;60680;52.182;5.398;2022-08-19T06:31:56;40.20;;;17.87;;
71975;SDS011;60680;52.182;5.398;2022-08-19T06:34:25;36.17;;;17.38;;
71975;SDS011;60680;52.182;5.398;2022-08-19T06:36:54;38.33;;;18.00;;
71975;SDS011;60680;52.182;5.398;2022-08-19T06:39:23;40.47;;;19.15;;
71975;SDS011;60680;52.182;5.398;2022-08-19T06:41:53;39.17;;;18.55;;
71975;SDS011;60680;52.182;5.398;2022-08-19T06:44:25;37.03;;;17.10;;
71975;SDS011;60680;52.182;5.398;2022-08-19T06:46:55;41.03;;;17.77;;
71975;SDS011;60680;52.182;5.398;2022-08-19T06:49:22;38.53;;;17.92;;
71975;SDS011;60680;52.182;5.398;2022-08-19T06:51:49;37.17;;;17.17;;
71975;SDS011;60680;52.182;5.398;2022-08-19T06:54:17;40.40;;;17.92;;
71975;SDS011;60680;52.182;5.398;2022-08-19T06:56:45;38.87;;;17.43;;
71975;SDS011;60680;52.182;5.398;2022-08-19T06:59:13;38.00;;;16.33;;
71975;SDS011;60680;52.182;5.398;2022-08-19T07:01:50;40.67;;;17.33;;
71975;SDS011;60680;52.182;5.398;2022-08-19T07:04:20;45.22;;;17.95;;
71975;SDS011;60680;52.182;5.398;2022-08-19T07:06:50;48.08;;;18.73;;
71975;SDS011;60680;52.182;5.398;2022-08-19T07:09:44;44.40;;;18.27;;
71975;SDS011;60680;52.182;5.398;2022-08-19T07:12:23;48.50;;;19.92;;
71975;SDS011;60680;52.182;5.398;2022-08-19T07:14:51;41.90;;;18.63;;
71975;SDS011;60680;52.182;5.398;2022-08-19T07:17:19;41.35;;;17.85;;
71975;SDS011;60680;52.182;5.398;2022-08-19T07:19:46;46.63;;;19.95;;
71975;SDS011;60680;52.182;5.398;2022-08-19T07:22:13;48.67;;;20.27;;
71975;SDS011;60680;52.182;5.398;2022-08-19T07:24:42;45.45;;;19.52;;
71975;SDS011;60680;52.182;5.398;2022-08-19T07:27:16;48.08;;;19.85;;
71975;SDS011;60680;52.182;5.398;2022-08-19T07:29:51;46.30;;;19.23;;
71975;SDS011;60680;52.182;5.398;2022-08-19T07:32:23;43.30;;;18.75;;
71975;SDS011;60680;52.182;5.398;2022-08-19T07:34:52;46.13;;;20.27;;
71975;SDS011;60680;52.182;5.398;2022-08-19T07:37:19;46.47;;;20.90;;
71975;SDS011;60680;52.182;5.398;2022-08-19T07:39:46;44.55;;;20.75;;
71975;SDS011;60680;52.182;5.398;2022-08-19T07:42:13;43.38;;;19.95;;
71975;SDS011;60680;52.182;5.398;2022-08-19T07:44:40;42.70;;;19.88;;
71975;SDS011;60680;52.182;5.398;2022-08-19T07:47:15;49.20;;;19.17;;
71975;SDS011;60680;52.182;5.398;2022-08-19T07:50:04;42.55;;;18.08;;
71975;SDS011;60680;52.182;5.398;2022-08-19T07:52:33;48.22;;;19.05;;
71975;SDS011;60680;52.182;5.398;2022-08-19T07:55:00;44.63;;;19.27;;
71975;SDS011;60680;52.182;5.398;2022-08-19T07:57:29;39.97;;;19.67;;
71975;SDS011;60680;52.182;5.398;2022-08-19T07:59:56;42.57;;;18.23;;
71975;SDS011;60680;52.182;5.398;2022-08-19T08:02:22;39.85;;;18.65;;
71975;SDS011;60680;52.182;5.398;2022-08-19T08:04:49;46.53;;;19.70;;
71975;SDS011;60680;52.182;5.398;2022-08-19T08:07:34;44.38;;;19.45;;
71975;SDS011;60680;52.182;5.398;2022-08-19T08:10:18;40.67;;;19.15;;
71975;SDS011;60680;52.182;5.398;2022-08-19T08:12:49;37.40;;;17.43;;
71975;SDS011;60680;52.182;5.398;2022-08-19T08:15:35;38.72;;;17.80;;
71975;SDS011;60680;52.182;5.398;2022-08-19T08:18:08;39.22;;;18.73;;
71975;SDS011;60680;52.182;5.398;2022-08-19T08:20:35;39.10;;;18.70;;
71975;SDS011;60680;52.182;5.398;2022-08-19T08:23:02;40.60;;;17.63;;
71975;SDS011;60680;52.182;5.398;2022-08-19T08:25:47;37.00;;;16.83;;
71975;SDS011;60680;52.182;5.398;2022-08-19T08:28:15;38.97;;;16.70;;
71975;SDS011;60680;52.182;5.398;2022-08-19T08:30:43;36.25;;;16.55;;
71975;SDS011;60680;52.182;5.398;2022-08-19T08:33:12;32.83;;;16.58;;
71975;SDS011;60680;52.182;5.398;2022-08-19T08:35:45;33.50;;;16.75;;
71975;SDS011;60680;52.182;5.398;2022-08-19T08:38:12;34.40;;;15.33;;
71975;SDS011;60680;52.182;5.398;2022-08-19T08:40:45;31.50;;;14.73;;
71975;SDS011;60680;52.182;5.398;2022-08-19T08:43:29;33.60;;;16.02;;
71975;SDS011;60680;52.182;5.398;2022-08-19T08:46:06;39.72;;;16.80;;
71975;SDS011;60680;52.182;5.398;2022-08-19T08:49:05;36.00;;;15.80;;
71975;SDS011;60680;52.182;5.398;2022-08-19T08:51:48;33.53;;;15.23;;
71975;SDS011;60680;52.182;5.398;2022-08-19T08:54:26;30.08;;;14.93;;
71975;SDS011;60680;52.182;5.398;2022-08-19T08:57:02;33.65;;;15.77;;
71975;SDS011;60680;52.182;5.398;2022-08-19T08:59:35;32.35;;;16.10;;
71975;SDS011;60680;52.182;5.398;2022-08-19T09:02:05;32.40;;;15.85;;
71975;SDS011;60680;52.182;5.398;2022-08-19T09:04:36;33.70;;;15.33;;
71975;SDS011;60680;52.182;5.398;2022-08-19T09:10:10;30.45;;;15.73;;
71975;SDS011;60680;52.182;5.398;2022-08-19T09:15:58;32.53;;;14.13;;
71975;SDS011;60680;52.182;5.398;2022-08-19T09:18:40;29.07;;;14.87;;
71975;SDS011;60680;52.182;5.398;2022-08-19T09:21:14;33.10;;;14.50;;
71975;SDS011;60680;52.182;5.398;2022-08-19T09:23:42;28.75;;;14.57;;
71975;SDS011;60680;52.182;5.398;2022-08-19T09:26:10;27.35;;;13.85;;
71975;SDS011;60680;52.182;5.398;2022-08-19T09:28:42;28.80;;;14.65;;
71975;SDS011;60680;52.182;5.398;2022-08-19T09:31:14;28.13;;;15.00;;
71975;SDS011;60680;52.182;5.398;2022-08-19T09:33:50;27.55;;;14.90;;
71975;SDS011;60680;52.182;5.398;2022-08-19T09:36:19;30.33;;;15.32;;
71975;SDS011;60680;52.182;5.398;2022-08-19T09:39:00;25.08;;;13.90;;
71975;SDS011;60680;52.182;5.398;2022-08-19T09:41:27;26.25;;;14.77;;
71975;SDS011;60680;52.182;5.398;2022-08-19T09:43:59;25.40;;;14.37;;
71975;SDS011;60680;52.182;5.398;2022-08-19T09:46:26;26.92;;;14.73;;
71975;SDS011;60680;52.182;5.398;2022-08-19T09:48:56;26.10;;;14.93;;
71975;SDS011;60680;52.182;5.398;2022-08-19T09:51:31;31.10;;;16.27;;
71975;SDS011;60680;52.182;5.398;2022-08-19T09:54:01;26.00;;;15.23;;
71975;SDS011;60680;52.182;5.398;2022-08-19T09:56:30;26.60;;;13.90;;
71975;SDS011;60680;52.182;5.398;2022-08-19T09:58:59;24.83;;;13.80;;
71975;SDS011;60680;52.182;5.398;2022-08-19T10:01:28;25.48;;;14.48;;
71975;SDS011;60680;52.182;5.398;2022-08-19T10:03:57;23.95;;;13.32;;
71975;SDS011;60680;52.182;5.398;2022-08-19T10:06:27;23.65;;;14.13;;
71975;SDS011;60680;52.182;5.398;2022-08-19T10:09:12;22.63;;;13.90;;
71975;SDS011;60680;52.182;5.398;2022-08-19T10:11:40;26.85;;;13.70;;
71975;SDS011;60680;52.182;5.398;2022-08-19T10:14:19;19.67;;;12.45;;
71975;SDS011;60680;52.182;5.398;2022-08-19T10:16:48;23.92;;;12.18;;
71975;SDS011;60680;52.182;5.398;2022-08-19T10:19:18;18.98;;;11.98;;
71975;SDS011;60680;52.182;5.398;2022-08-19T10:21:51;21.77;;;11.33;;
71975;SDS011;60680;52.182;5.398;2022-08-19T10:24:25;20.92;;;11.98;;
71975;SDS011;60680;52.182;5.398;2022-08-19T10:26:54;21.25;;;13.00;;
71975;SDS011;60680;52.182;5.398;2022-08-19T10:29:25;19.58;;;12.20;;
71975;SDS011;60680;52.182;5.398;2022-08-19T10:32:02;21.33;;;11.23;;
71975;SDS011;60680;52.182;5.398;2022-08-19T10:34:38;18.93;;;11.10;;
71975;SDS011;60680;52.182;5.398;2022-08-19T10:37:14;23.25;;;12.88;;
71975;SDS011;60680;52.182;5.398;2022-08-19T10:39:54;19.48;;;12.90;;
71975;SDS011;60680;52.182;5.398;2022-08-19T10:42:21;18.48;;;12.63;;
71975;SDS011;60680;52.182;5.398;2022-08-19T10:44:48;18.02;;;12.48;;
71975;SDS011;60680;52.182;5.398;2022-08-19T10:47:17;20.20;;;11.73;;
71975;SDS011;60680;52.182;5.398;2022-08-19T10:49:51;21.05;;;12.32;;
71975;SDS011;60680;52.182;5.398;2022-08-19T10:52:44;19.90;;;12.70;;
71975;SDS011;60680;52.182;5.398;2022-08-19T10:55:15;18.33;;;12.73;;
71975;SDS011;60680;52.182;5.398;2022-08-19T10:58:01;20.80;;;13.18;;
71975;SDS011;60680;52.182;5.398;2022-08-19T11:00:28;19.40;;;13.20;;
71975;SDS011;60680;52.182;5.398;2022-08-19T11:02:57;21.05;;;13.60;;
71975;SDS011;60680;52.182;5.398;2022-08-19T11:05:23;18.65;;;13.63;;
71975;SDS011;60680;52.182;5.398;2022-08-19T11:07:50;22.23;;;13.52;;
71975;SDS011;60680;52.182;5.398;2022-08-19T11:10:18;21.77;;;13.13;;
71975;SDS011;60680;52.182;5.398;2022-08-19T11:12:47;19.77;;;12.83;;
71975;SDS011;60680;52.182;5.398;2022-08-19T11:15:14;15.93;;;11.68;;
71975;SDS011;60680;52.182;5.398;2022-08-19T11:17:41;22.85;;;14.63;;
71975;SDS011;60680;52.182;5.398;2022-08-19T11:20:13;19.05;;;12.98;;
71975;SDS011;60680;52.182;5.398;2022-08-19T11:22:41;19.63;;;12.85;;
71975;SDS011;60680;52.182;5.398;2022-08-19T11:25:08;16.80;;;11.50;;
71975;SDS011;60680;52.182;5.398;2022-08-19T11:27:40;18.83;;;12.77;;
71975;SDS011;60680;52.182;5.398;2022-08-19T11:30:12;23.15;;;14.07;;
71975;SDS011;60680;52.182;5.398;2022-08-19T11:32:40;21.40;;;14.43;;
71975;SDS011;60680;52.182;5.398;2022-08-19T11:35:13;20.67;;;14.20;;
71975;SDS011;60680;52.182;5.398;2022-08-19T11:37:40;17.57;;;12.53;;
71975;SDS011;60680;52.182;5.398;2022-08-19T11:40:07;19.52;;;13.02;;
71975;SDS011;60680;52.182;5.398;2022-08-19T11:42:34;22.15;;;12.63;;
71975;SDS011;60680;52.182;5.398;2022-08-19T11:45:19;21.20;;;13.35;;
71975;SDS011;60680;52.182;5.398;2022-08-19T11:47:46;18.15;;;12.90;;
71975;SDS011;60680;52.182;5.398;2022-08-19T11:50:14;18.77;;;12.33;;
71975;SDS011;60680;52.182;5.398;2022-08-19T11:52:41;19.70;;;12.85;;
71975;SDS011;60680;52.182;5.398;2022-08-19T11:55:08;23.58;;;13.93;;
71975;SDS011;60680;52.182;5.398;2022-08-19T11:57:35;20.63;;;12.80;;
71975;SDS011;60680;52.182;5.398;2022-08-19T12:00:02;21.30;;;13.25;;
71975;SDS011;60680;52.182;5.398;2022-08-19T12:02:30;17.77;;;12.63;;
71975;SDS011;60680;52.182;5.398;2022-08-19T12:04:58;21.27;;;13.20;;
71975;SDS011;60680;52.182;5.398;2022-08-19T12:07:25;18.33;;;13.02;;
71975;SDS011;60680;52.182;5.398;2022-08-19T12:09:51;22.90;;;12.95;;
71975;SDS011;60680;52.182;5.398;2022-08-19T12:12:20;18.40;;;13.30;;
71975;SDS011;60680;52.182;5.398;2022-08-19T12:14:47;22.60;;;13.83;;
71975;SDS011;60680;52.182;5.398;2022-08-19T12:17:14;23.80;;;14.10;;
71975;SDS011;60680;52.182;5.398;2022-08-19T12:19:40;20.98;;;13.35;;
71975;SDS011;60680;52.182;5.398;2022-08-19T12:22:07;20.67;;;13.07;;
71975;SDS011;60680;52.182;5.398;2022-08-19T12:24:33;24.38;;;14.63;;
71975;SDS011;60680;52.182;5.398;2022-08-19T12:27:00;33.27;;;16.93;;
71975;SDS011;60680;52.182;5.398;2022-08-19T12:29:28;34.38;;;20.20;;
71975;SDS011;60680;52.182;5.398;2022-08-19T12:31:58;37.70;;;21.13;;
71975;SDS011;60680;52.182;5.398;2022-08-19T12:34:29;37.30;;;21.77;;
71975;SDS011;60680;52.182;5.398;2022-08-19T12:36:57;32.38;;;19.65;;
71975;SDS011;60680;52.182;5.398;2022-08-19T12:39:25;28.00;;;16.17;;
71975;SDS011;60680;52.182;5.398;2022-08-19T12:41:52;20.55;;;12.85;;
71975;SDS011;60680;52.182;5.398;2022-08-19T12:44:20;18.45;;;12.45;;
71975;SDS011;60680;52.182;5.398;2022-08-19T12:46:54;19.35;;;12.07;;
71975;SDS011;60680;52.182;5.398;2022-08-19T12:49:22;18.13;;;12.75;;
71975;SDS011;60680;52.182;5.398;2022-08-19T12:52:10;20.47;;;12.80;;
71975;SDS011;60680;52.182;5.398;2022-08-19T12:54:41;19.55;;;12.93;;
71975;SDS011;60680;52.182;5.398;2022-08-19T12:57:12;24.17;;;13.25;;
71975;SDS011;60680;52.182;5.398;2022-08-19T12:59:39;19.70;;;12.82;;
71975;SDS011;60680;52.182;5.398;2022-08-19T13:02:06;18.30;;;12.57;;
71975;SDS011;60680;52.182;5.398;2022-08-19T13:04:33;19.57;;;12.77;;
71975;SDS011;60680;52.182;5.398;2022-08-19T13:07:02;17.63;;;12.40;;
71975;SDS011;60680;52.182;5.398;2022-08-19T13:09:29;15.00;;;11.15;;
71975;SDS011;60680;52.182;5.398;2022-08-19T13:11:56;17.42;;;12.43;;
71975;SDS011;60680;52.182;5.398;2022-08-19T13:14:23;18.08;;;13.35;;
71975;SDS011;60680;52.182;5.398;2022-08-19T13:16:52;18.83;;;13.10;;
71975;SDS011;60680;52.182;5.398;2022-08-19T13:19:18;18.13;;;12.70;;
71975;SDS011;60680;52.182;5.398;2022-08-19T13:21:48;19.33;;;14.55;;
71975;SDS011;60680;52.182;5.398;2022-08-19T13:24:25;20.90;;;14.25;;
71975;SDS011;60680;52.182;5.398;2022-08-19T13:26:59;21.75;;;14.45;;
71975;SDS011;60680;52.182;5.398;2022-08-19T13:29:26;19.73;;;14.13;;
71975;SDS011;60680;52.182;5.398;2022-08-19T13:32:11;20.73;;;13.35;;
71975;SDS011;60680;52.182;5.398;2022-08-19T13:34:58;20.38;;;15.07;;
71975;SDS011;60680;52.182;5.398;2022-08-19T13:37:25;19.48;;;14.15;;
71975;SDS011;60680;52.182;5.398;2022-08-19T13:40:12;19.88;;;14.43;;
71975;SDS011;60680;52.182;5.398;2022-08-19T13:42:43;21.27;;;14.43;;
71975;SDS011;60680;52.182;5.398;2022-08-19T13:45:13;20.02;;;14.70;;
71975;SDS011;60680;52.182;5.398;2022-08-19T13:47:46;23.08;;;14.82;;
71975;SDS011;60680;52.182;5.398;2022-08-19T13:50:16;23.67;;;15.50;;
71975;SDS011;60680;52.182;5.398;2022-08-19T13:52:45;19.20;;;12.43;;
71975;SDS011;60680;52.182;5.398;2022-08-19T13:55:13;17.03;;;11.97;;
71975;SDS011;60680;52.182;5.398;2022-08-19T13:57:50;16.48;;;10.77;;
71975;SDS011;60680;52.182;5.398;2022-08-19T14:00:19;17.15;;;11.50;;
71975;SDS011;60680;52.182;5.398;2022-08-19T14:02:49;17.42;;;10.68;;
71975;SDS011;60680;52.182;5.398;2022-08-19T14:05:18;16.67;;;10.80;;
71975;SDS011;60680;52.182;5.398;2022-08-19T14:07:46;15.67;;;11.13;;
71975;SDS011;60680;52.182;5.398;2022-08-19T14:10:15;14.73;;;10.52;;
71975;SDS011;60680;52.182;5.398;2022-08-19T14:12:42;13.55;;;10.05;;
71975;SDS011;60680;52.182;5.398;2022-08-19T14:15:09;13.93;;;10.23;;
71975;SDS011;60680;52.182;5.398;2022-08-19T14:17:43;16.15;;;10.68;;
71975;SDS011;60680;52.182;5.398;2022-08-19T14:20:12;15.27;;;10.57;;
71975;SDS011;60680;52.182;5.398;2022-08-19T14:22:43;14.00;;;10.50;;
71975;SDS011;60680;52.182;5.398;2022-08-19T14:25:12;17.15;;;11.13;;
71975;SDS011;60680;52.182;5.398;2022-08-19T14:27:41;14.25;;;10.75;;
71975;SDS011;60680;52.182;5.398;2022-08-19T14:30:09;16.67;;;11.65;;
71975;SDS011;60680;52.182;5.398;2022-08-19T14:32:37;16.87;;;10.63;;
71975;SDS011;60680;52.182;5.398;2022-08-19T14:35:04;14.68;;;10.25;;
71975;SDS011;60680;52.182;5.398;2022-08-19T14:37:33;13.48;;;9.95;;
71975;SDS011;60680;52.182;5.398;2022-08-19T14:40:11;13.77;;;8.80;;
71975;SDS011;60680;52.182;5.398;2022-08-19T14:42:40;11.55;;;8.95;;
71975;SDS011;60680;52.182;5.398;2022-08-19T14:45:07;13.63;;;9.53;;
71975;SDS011;60680;52.182;5.398;2022-08-19T14:47:34;11.88;;;8.05;;
71975;SDS011;60680;52.182;5.398;2022-08-19T14:50:09;8.88;;;7.18;;
71975;SDS011;60680;52.182;5.398;2022-08-19T14:52:43;8.95;;;7.10;;
71975;SDS011;60680;52.182;5.398;2022-08-19T14:55:11;8.93;;;6.78;;